Time;durP1;ratioP1;P1;durP2;ratioP2;P2;SDS_P1;SDS_P2;PMS_P1;PMS_P2;Temp;Humidity;BMP_temperature;BMP_pressure;BME280_temperature;BME280_humidity;BME280_pressure;Samples;Min_cycle;Max_cycle;Signal;HPM_P1;HPM_P2
2023/03/18 00:01:03;;;;;;;;;9.00;8.25;;;;;;;;5100485;27;10262;-70
2023/03/18 00:03:32;;;;;;;;;6.00;6.00;;;;;;;;5097277;27;8785;-70
2023/03/18 00:06:05;;;;;;;;;7.25;7.25;;;;;;;;5101828;28;10109;-70
2023/03/18 00:08:31;;;;;;;;;11.25;8.25;;;;;;;;5104855;28;10245;-70
2023/03/18 00:10:58;;;;;;;;;10.25;9.25;;;;;;;;5095012;27;9987;-70
2023/03/18 00:13:24;;;;;;;;;12.50;11.75;;;;;;;;5094068;28;9975;-70
2023/03/18 00:15:50;;;;;;;;;13.75;11.00;;;;;;;;5105050;27;10188;-70
2023/03/18 00:18:15;;;;;;;;;10.75;10.75;;;;;;;;5100623;27;10205;-70
2023/03/18 00:20:41;;;;;;;;;10.00;9.00;;;;;;;;5101240;28;10199;-70
2023/03/18 00:23:07;;;;;;;;;14.00;13.00;;;;;;;;5091486;28;8869;-70
2023/03/18 00:25:32;;;;;;;;;13.50;10.75;;;;;;;;5101591;28;10286;-70
2023/03/18 00:27:58;;;;;;;;;10.75;10.75;;;;;;;;5099004;28;8881;-70
2023/03/18 00:30:24;;;;;;;;;12.25;10.50;;;;;;;;5099174;28;9680;-70
2023/03/18 00:32:49;;;;;;;;;11.50;10.00;;;;;;;;5105641;28;8833;-70
2023/03/18 00:35:15;;;;;;;;;10.25;10.25;;;;;;;;5094723;28;10930;-70
2023/03/18 00:37:41;;;;;;;;;11.00;10.00;;;;;;;;5105301;27;8818;-70
2023/03/18 00:40:08;;;;;;;;;12.75;10.50;;;;;;;;5096607;27;8805;-70
2023/03/18 00:42:36;;;;;;;;;12.50;12.50;;;;;;;;5106913;27;8797;-70
2023/03/18 00:45:03;;;;;;;;;12.00;12.00;;;;;;;;5093234;27;10170;-70
2023/03/18 00:47:28;;;;;;;;;9.75;6.25;;;;;;;;5105678;27;10266;-70
2023/03/18 00:49:53;;;;;;;;;8.75;8.50;;;;;;;;5097980;28;10148;-70
2023/03/18 00:52:18;;;;;;;;;9.00;7.00;;;;;;;;5099166;28;8835;-70
2023/03/18 00:54:44;;;;;;;;;7.75;6.00;;;;;;;;5105854;28;8806;-70
2023/03/18 00:57:09;;;;;;;;;9.00;9.00;;;;;;;;5094510;27;8894;-69
2023/03/18 00:59:35;;;;;;;;;8.50;8.50;;;;;;;;5105447;27;8819;-70
2023/03/18 01:02:00;;;;;;;;;9.75;8.75;;;;;;;;5099432;28;8917;-70
2023/03/18 01:04:26;;;;;;;;;13.00;10.50;;;;;;;;5098545;28;8803;-70
2023/03/18 01:06:52;;;;;;;;;10.75;10.00;;;;;;;;5106089;28;9574;-70
2023/03/18 01:09:17;;;;;;;;;8.00;8.00;;;;;;;;5093609;28;10075;-70
2023/03/18 01:11:42;;;;;;;;;9.75;9.00;;;;;;;;5102523;28;8803;-70
2023/03/18 01:14:07;;;;;;;;;11.75;11.00;;;;;;;;5099047;28;8817;-70
2023/03/18 01:16:32;;;;;;;;;8.75;8.75;;;;;;;;5097622;28;8803;-70
2023/03/18 01:18:58;;;;;;;;;11.25;11.25;;;;;;;;5107211;28;8784;-70
2023/03/18 01:21:24;;;;;;;;;7.50;7.50;;;;;;;;5093420;28;8820;-70
2023/03/18 01:23:50;;;;;;;;;9.00;6.75;;;;;;;;5102465;27;9584;-70
2023/03/18 01:26:15;;;;;;;;;8.75;8.00;;;;;;;;5101465;28;8804;-70
2023/03/18 01:28:41;;;;;;;;;9.00;9.00;;;;;;;;5096086;27;8804;-70
2023/03/18 01:31:06;;;;;;;;;11.25;9.75;;;;;;;;5107345;28;8816;-70
2023/03/18 01:33:32;;;;;;;;;7.75;7.00;;;;;;;;5093454;28;8836;-70
2023/03/18 01:35:58;;;;;;;;;9.75;8.50;;;;;;;;5102329;27;8803;-70
2023/03/18 01:38:24;;;;;;;;;9.00;8.00;;;;;;;;5102435;28;8816;-70
2023/03/18 01:40:53;;;;;;;;;8.75;7.00;;;;;;;;5094254;27;10061;-70
2023/03/18 01:43:20;;;;;;;;;8.25;7.25;;;;;;;;5106032;27;10214;-70
2023/03/18 01:45:52;;;;;;;;;6.75;6.75;;;;;;;;5097048;28;10105;-70
2023/03/18 01:48:19;;;;;;;;;7.50;6.50;;;;;;;;5098253;28;10289;-70
2023/03/18 01:50:51;;;;;;;;;8.00;8.00;;;;;;;;5105375;28;10425;-70
2023/03/18 01:53:16;;;;;;;;;9.00;9.00;;;;;;;;5092919;27;10878;-70
2023/03/18 01:55:42;;;;;;;;;7.00;7.00;;;;;;;;5103693;27;10109;-69
2023/03/18 01:58:18;;;;;;;;;10.00;10.00;;;;;;;;5099629;28;8855;-70
2023/03/18 02:00:47;;;;;;;;;9.00;8.00;;;;;;;;5095671;27;8784;-70
2023/03/18 02:03:12;;;;;;;;;7.00;7.00;;;;;;;;5105252;28;10292;-70
2023/03/18 02:05:39;;;;;;;;;11.75;9.50;;;;;;;;5094129;28;10209;-70
2023/03/18 02:08:04;;;;;;;;;9.00;8.00;;;;;;;;5099187;27;8796;-70
2023/03/18 02:10:30;;;;;;;;;8.00;8.00;;;;;;;;5089365;28;10196;-69
2023/03/18 02:13:03;;;;;;;;;6.00;5.00;;;;;;;;5106599;28;8817;-70
2023/03/18 02:15:30;;;;;;;;;11.00;9.50;;;;;;;;5094003;28;10113;-71
2023/03/18 02:17:59;;;;;;;;;8.25;7.50;;;;;;;;5101309;27;10193;-71
2023/03/18 02:20:34;;;;;;;;;10.50;9.50;;;;;;;;5101335;28;10110;-70
2023/03/18 02:23:21;;;;;;;;;9.75;7.50;;;;;;;;5093473;27;10049;-71
2023/03/18 02:25:51;;;;;;;;;9.75;7.25;;;;;;;;5102966;27;10109;-71
2023/03/18 02:28:19;;;;;;;;;11.00;10.25;;;;;;;;5100347;28;10292;-71
2023/03/18 02:30:49;;;;;;;;;7.50;7.50;;;;;;;;5108475;28;11367;-70
2023/03/18 02:33:16;;;;;;;;;10.50;9.25;;;;;;;;5095950;27;10133;-70
2023/03/18 02:35:43;;;;;;;;;7.00;7.00;;;;;;;;5106116;28;10919;-68
2023/03/18 02:38:08;;;;;;;;;6.50;6.50;;;;;;;;5102076;28;10311;-70
2023/03/18 02:40:35;;;;;;;;;10.00;8.00;;;;;;;;5098728;28;10178;-69
2023/03/18 02:43:18;;;;;;;;;11.00;9.00;;;;;;;;5109843;27;8807;-69
2023/03/18 02:45:49;;;;;;;;;6.50;6.50;;;;;;;;5099422;28;10155;-70
2023/03/18 02:48:16;;;;;;;;;6.25;6.00;;;;;;;;5100326;28;10044;-70
2023/03/18 02:50:42;;;;;;;;;8.25;8.25;;;;;;;;5106842;28;10136;-70
2023/03/18 02:53:07;;;;;;;;;5.50;5.50;;;;;;;;5096248;27;10282;-69
2023/03/18 02:55:32;;;;;;;;;6.75;5.00;;;;;;;;5108582;27;9584;-70
2023/03/18 02:57:57;;;;;;;;;6.50;6.50;;;;;;;;5101311;28;8801;-70
2023/03/18 03:00:23;;;;;;;;;6.25;6.00;;;;;;;;5101323;28;8802;-69
2023/03/18 03:02:48;;;;;;;;;6.00;6.00;;;;;;;;5108189;28;8820;-70
2023/03/18 03:05:14;;;;;;;;;5.00;5.00;;;;;;;;5096438;28;9514;-70
2023/03/18 03:07:39;;;;;;;;;6.75;6.75;;;;;;;;5106042;28;9554;-70
2023/03/18 03:10:05;;;;;;;;;7.50;6.00;;;;;;;;5101939;28;8789;-70
2023/03/18 03:12:31;;;;;;;;;5.75;5.75;;;;;;;;5101894;27;8857;-70
2023/03/18 03:14:56;;;;;;;;;5.75;4.25;;;;;;;;5092468;28;8814;-70
2023/03/18 03:17:21;;;;;;;;;6.50;5.00;;;;;;;;5093053;28;8803;-70
2023/03/18 03:19:46;;;;;;;;;6.00;6.00;;;;;;;;5093065;28;8771;-70
2023/03/18 03:22:12;;;;;;;;;5.00;5.00;;;;;;;;5093162;28;8957;-70
2023/03/18 03:24:37;;;;;;;;;5.00;5.00;;;;;;;;5092565;28;8809;-70
2023/03/18 03:27:03;;;;;;;;;4.00;4.00;;;;;;;;5093307;28;8803;-70
2023/03/18 03:29:29;;;;;;;;;3.75;3.75;;;;;;;;5098292;28;8781;-70
2023/03/18 03:31:54;;;;;;;;;4.75;3.00;;;;;;;;5108177;27;8850;-70
2023/03/18 03:34:19;;;;;;;;;5.00;4.00;;;;;;;;5092997;28;8784;-70
2023/03/18 03:36:45;;;;;;;;;4.75;2.75;;;;;;;;5097993;28;8796;-70
2023/03/18 03:39:11;;;;;;;;;3.00;3.00;;;;;;;;5112989;28;8769;-70
2023/03/18 03:41:36;;;;;;;;;5.25;4.00;;;;;;;;5113332;27;8785;-70
2023/03/18 03:44:01;;;;;;;;;4.50;3.00;;;;;;;;5111789;28;9954;-69
2023/03/18 03:46:26;;;;;;;;;3.75;3.75;;;;;;;;5113267;28;9323;-70
2023/03/18 03:48:52;;;;;;;;;1.25;1.25;;;;;;;;5111901;28;8788;-70
2023/03/18 03:51:17;;;;;;;;;5.75;4.50;;;;;;;;5112981;27;9527;-69
2023/03/18 03:53:44;;;;;;;;;5.25;3.25;;;;;;;;5113102;28;8899;-69
2023/03/18 03:56:10;;;;;;;;;4.25;3.75;;;;;;;;5111799;28;9555;-70
2023/03/18 03:58:35;;;;;;;;;3.00;3.00;;;;;;;;5112191;28;10030;-69
2023/03/18 04:01:01;;;;;;;;;5.00;3.00;;;;;;;;5111423;28;8800;-70
2023/03/18 04:03:27;;;;;;;;;4.00;3.00;;;;;;;;5112516;27;8777;-69
2023/03/18 04:05:52;;;;;;;;;3.50;3.00;;;;;;;;5111404;28;9456;-69
2023/03/18 04:08:17;;;;;;;;;5.25;4.75;;;;;;;;5112654;28;8761;-69
2023/03/18 04:10:42;;;;;;;;;2.50;2.50;;;;;;;;5112782;28;8777;-70
2023/03/18 04:13:08;;;;;;;;;3.75;3.75;;;;;;;;5112679;28;8797;-69
2023/03/18 04:15:33;;;;;;;;;5.25;5.00;;;;;;;;5112640;27;8850;-70
2023/03/18 04:18:03;;;;;;;;;4.50;3.50;;;;;;;;5112531;27;8800;-70
2023/03/18 04:20:28;;;;;;;;;3.50;3.50;;;;;;;;5111091;28;8745;-70
2023/03/18 04:22:54;;;;;;;;;5.75;3.00;;;;;;;;5112095;28;9716;-70
2023/03/18 04:25:19;;;;;;;;;4.00;4.00;;;;;;;;5111882;28;9734;-70
2023/03/18 04:27:44;;;;;;;;;4.00;4.00;;;;;;;;5112729;27;8777;-70
2023/03/18 04:30:10;;;;;;;;;4.25;3.75;;;;;;;;5112146;28;8777;-70
2023/03/18 04:32:35;;;;;;;;;2.25;1.75;;;;;;;;5112370;27;8829;-70
2023/03/18 04:35:01;;;;;;;;;2.00;2.00;;;;;;;;5112551;27;8811;-71
2023/03/18 04:37:26;;;;;;;;;1.50;0.00;;;;;;;;5112205;27;8903;-70
2023/03/18 04:39:51;;;;;;;;;3.00;2.00;;;;;;;;5112335;28;8808;-71
2023/03/18 04:42:16;;;;;;;;;2.75;2.00;;;;;;;;5111885;27;8878;-71
2023/03/18 04:44:42;;;;;;;;;3.00;3.00;;;;;;;;5110821;28;8811;-70
2023/03/18 04:47:07;;;;;;;;;2.00;2.00;;;;;;;;5111934;27;8785;-71
2023/03/18 04:49:33;;;;;;;;;2.25;2.25;;;;;;;;5111997;28;8756;-70
2023/03/18 04:51:59;;;;;;;;;2.25;2.00;;;;;;;;5111606;27;8805;-71
2023/03/18 04:54:24;;;;;;;;;3.00;3.00;;;;;;;;5111880;27;8785;-71
2023/03/18 04:56:49;;;;;;;;;4.00;2.00;;;;;;;;5111503;28;9592;-70
2023/03/18 04:59:14;;;;;;;;;4.75;2.25;;;;;;;;5111716;28;8789;-70
2023/03/18 05:01:39;;;;;;;;;3.00;3.00;;;;;;;;5110761;28;8812;-72
2023/03/18 05:04:05;;;;;;;;;4.00;2.25;;;;;;;;5111981;28;8918;-69
2023/03/18 05:06:32;;;;;;;;;3.75;2.25;;;;;;;;5111990;27;8777;-71
2023/03/18 05:08:58;;;;;;;;;2.00;2.00;;;;;;;;5111913;27;8764;-71
2023/03/18 05:11:24;;;;;;;;;2.00;2.00;;;;;;;;5111590;27;9861;-70
2023/03/18 05:13:49;;;;;;;;;2.50;2.00;;;;;;;;5111989;27;10466;-69
2023/03/18 05:16:14;;;;;;;;;2.00;2.00;;;;;;;;5111779;27;8882;-70
2023/03/18 05:18:40;;;;;;;;;1.75;1.75;;;;;;;;5111855;28;8796;-70
2023/03/18 05:21:06;;;;;;;;;2.50;2.50;;;;;;;;5111715;28;8814;-70
2023/03/18 05:23:32;;;;;;;;;1.00;1.00;;;;;;;;5111710;27;8796;-70
2023/03/18 05:25:57;;;;;;;;;2.00;2.00;;;;;;;;5111041;27;10189;-70
2023/03/18 05:28:22;;;;;;;;;1.25;1.25;;;;;;;;5111312;28;8781;-69
2023/03/18 05:30:48;;;;;;;;;2.00;2.00;;;;;;;;5110870;28;8796;-70
2023/03/18 05:33:13;;;;;;;;;4.00;3.00;;;;;;;;5109817;28;8855;-70
2023/03/18 05:35:38;;;;;;;;;1.00;1.00;;;;;;;;5111909;27;8785;-70
2023/03/18 05:38:04;;;;;;;;;1.00;1.00;;;;;;;;5111556;27;8797;-70
2023/03/18 05:40:29;;;;;;;;;2.00;1.00;;;;;;;;5111775;28;8804;-70
2023/03/18 05:42:54;;;;;;;;;1.25;1.25;;;;;;;;5111054;27;9586;-71
2023/03/18 05:45:19;;;;;;;;;2.25;2.25;;;;;;;;5111754;27;8787;-70
2023/03/18 05:47:45;;;;;;;;;2.00;2.00;;;;;;;;5111373;27;9511;-70
2023/03/18 05:50:10;;;;;;;;;1.75;1.75;;;;;;;;5111449;28;8797;-70
2023/03/18 05:52:37;;;;;;;;;2.00;2.00;;;;;;;;5111434;27;8832;-71
2023/03/18 05:55:02;;;;;;;;;5.50;3.75;;;;;;;;5111501;27;9649;-70
2023/03/18 05:57:28;;;;;;;;;2.00;1.75;;;;;;;;5111127;27;9869;-70
2023/03/18 05:59:53;;;;;;;;;1.50;1.50;;;;;;;;5113296;28;8765;-71
2023/03/18 06:02:18;;;;;;;;;1.00;1.00;;;;;;;;5114910;28;8781;-70
2023/03/18 06:04:44;;;;;;;;;4.00;2.00;;;;;;;;5114971;28;8777;-70
2023/03/18 06:07:10;;;;;;;;;2.75;2.00;;;;;;;;5114383;27;8801;-70
2023/03/18 06:09:36;;;;;;;;;2.25;2.25;;;;;;;;5112837;28;8792;-67
2023/03/18 06:12:02;;;;;;;;;1.75;1.75;;;;;;;;5114521;27;9977;-67
2023/03/18 06:14:28;;;;;;;;;1.75;1.50;;;;;;;;5114651;27;8761;-68
2023/03/18 06:16:54;;;;;;;;;2.00;2.00;;;;;;;;5113998;27;10313;-67
2023/03/18 06:19:20;;;;;;;;;2.50;2.50;;;;;;;;5114244;27;9992;-71
2023/03/18 06:21:46;;;;;;;;;2.75;2.75;;;;;;;;5114385;27;9943;-71
2023/03/18 06:24:13;;;;;;;;;2.75;2.00;;;;;;;;5114572;27;10329;-70
2023/03/18 06:26:38;;;;;;;;;2.50;2.50;;;;;;;;5113994;27;8777;-70
2023/03/18 06:29:04;;;;;;;;;3.00;3.00;;;;;;;;5114160;27;9973;-70
2023/03/18 06:31:30;;;;;;;;;3.25;3.00;;;;;;;;5114427;28;8827;-71
2023/03/18 06:33:55;;;;;;;;;4.00;4.00;;;;;;;;5114580;27;8785;-71
2023/03/18 06:36:20;;;;;;;;;4.00;4.00;;;;;;;;5113255;28;8827;-70
2023/03/18 06:38:45;;;;;;;;;5.00;3.25;;;;;;;;5114004;27;8769;-69
2023/03/18 06:41:11;;;;;;;;;4.50;4.50;;;;;;;;5113848;27;8793;-68
2023/03/18 06:43:37;;;;;;;;;4.75;4.75;;;;;;;;5113923;27;8801;-68
2023/03/18 06:46:03;;;;;;;;;4.25;3.25;;;;;;;;5113726;27;9559;-68
2023/03/18 06:48:28;;;;;;;;;2.75;2.75;;;;;;;;5114107;27;8757;-67
2023/03/18 06:50:54;;;;;;;;;3.50;2.25;;;;;;;;5112560;28;9802;-70
2023/03/18 06:53:19;;;;;;;;;3.00;2.00;;;;;;;;5113983;27;8800;-70
2023/03/18 06:55:44;;;;;;;;;3.25;3.25;;;;;;;;5113777;27;8765;-69
2023/03/18 06:58:09;;;;;;;;;2.25;2.25;;;;;;;;5113013;28;8898;-69
2023/03/18 07:00:35;;;;;;;;;2.00;2.00;;;;;;;;5113433;28;8857;-69
2023/03/18 07:03:00;;;;;;;;;2.00;2.00;;;;;;;;5113295;28;8781;-69
2023/03/18 07:05:25;;;;;;;;;2.00;2.00;;;;;;;;5113828;28;8773;-69
2023/03/18 07:07:51;;;;;;;;;1.00;1.00;;;;;;;;5113718;28;8781;-69
2023/03/18 07:10:21;;;;;;;;;2.25;2.25;;;;;;;;5113686;28;9582;-69
2023/03/18 07:12:46;;;;;;;;;4.50;3.50;;;;;;;;5113688;27;8796;-68
2023/03/18 07:15:12;;;;;;;;;2.25;2.25;;;;;;;;5113675;27;9867;-68
2023/03/18 07:17:37;;;;;;;;;3.75;2.25;;;;;;;;5113575;27;8795;-69
2023/03/18 07:20:04;;;;;;;;;2.25;2.25;;;;;;;;5095168;28;8789;-69
2023/03/18 07:22:29;;;;;;;;;1.00;1.00;;;;;;;;5109664;27;8776;-69
2023/03/18 07:24:54;;;;;;;;;1.00;1.00;;;;;;;;5095554;28;9878;-68
2023/03/18 07:27:19;;;;;;;;;1.75;0.50;;;;;;;;5112206;28;8805;-68
2023/03/18 07:29:45;;;;;;;;;2.75;1.75;;;;;;;;5113735;28;8769;-68
2023/03/18 07:32:10;;;;;;;;;1.50;1.00;;;;;;;;5112174;28;8835;-69
2023/03/18 07:34:35;;;;;;;;;3.00;1.50;;;;;;;;5113698;28;8899;-69
2023/03/18 07:37:01;;;;;;;;;1.00;1.00;;;;;;;;5113766;27;8861;-69
2023/03/18 07:39:26;;;;;;;;;1.75;1.75;;;;;;;;5112725;27;8866;-68
2023/03/18 07:41:51;;;;;;;;;1.00;1.00;;;;;;;;5113246;27;8848;-69
2023/03/18 07:44:17;;;;;;;;;0.75;0.75;;;;;;;;5113573;28;8756;-69
2023/03/18 07:46:42;;;;;;;;;2.00;2.00;;;;;;;;5112586;27;8812;-69
2023/03/18 07:49:08;;;;;;;;;1.00;1.00;;;;;;;;5111692;28;8785;-69
2023/03/18 07:51:33;;;;;;;;;2.25;1.25;;;;;;;;5111349;28;8800;-69
2023/03/18 07:53:58;;;;;;;;;0.00;0.00;;;;;;;;5112532;28;8801;-69
2023/03/18 07:56:24;;;;;;;;;1.00;1.00;;;;;;;;5106961;28;8815;-69
2023/03/18 07:58:50;;;;;;;;;1.50;1.50;;;;;;;;5100720;27;8796;-68
2023/03/18 08:01:17;;;;;;;;;1.75;1.50;;;;;;;;5102156;27;9813;-69
2023/03/18 08:03:43;;;;;;;;;2.00;1.00;;;;;;;;5102357;28;8791;-69
2023/03/18 08:06:08;;;;;;;;;1.00;1.00;;;;;;;;5101144;27;9756;-68
2023/03/18 08:08:34;;;;;;;;;2.00;1.00;;;;;;;;5103005;27;9743;-68
2023/03/18 08:11:01;;;;;;;;;2.00;1.00;;;;;;;;5101997;28;8811;-70
2023/03/18 08:13:27;;;;;;;;;2.00;2.00;;;;;;;;5101398;27;8797;-68
2023/03/18 08:15:52;;;;;;;;;1.75;1.50;;;;;;;;5102863;28;10654;-70
2023/03/18 08:18:18;;;;;;;;;1.00;1.00;;;;;;;;5101370;28;9629;-69
2023/03/18 08:20:43;;;;;;;;;1.50;1.00;;;;;;;;5103730;27;8827;-69
2023/03/18 08:23:08;;;;;;;;;1.00;1.00;;;;;;;;5111987;28;8830;-69
2023/03/18 08:25:33;;;;;;;;;0.75;0.75;;;;;;;;5104336;28;8792;-69
2023/03/18 08:27:59;;;;;;;;;2.75;2.00;;;;;;;;5090456;28;8801;-69
2023/03/18 08:30:27;;;;;;;;;2.00;2.00;;;;;;;;5090806;28;8800;-69
2023/03/18 08:32:52;;;;;;;;;1.75;1.75;;;;;;;;5092070;28;8925;-70
2023/03/18 08:35:18;;;;;;;;;2.00;1.75;;;;;;;;5091837;28;10058;-69
2023/03/18 08:37:43;;;;;;;;;2.00;2.00;;;;;;;;5092034;28;8787;-69
2023/03/18 08:40:09;;;;;;;;;1.00;1.00;;;;;;;;5091820;28;8819;-70
2023/03/18 08:42:34;;;;;;;;;2.00;2.00;;;;;;;;5103174;27;8820;-69
2023/03/18 08:44:59;;;;;;;;;2.00;2.00;;;;;;;;5112780;27;8854;-69
2023/03/18 08:47:24;;;;;;;;;4.00;2.50;;;;;;;;5111234;28;8789;-69
2023/03/18 08:49:50;;;;;;;;;5.00;3.00;;;;;;;;5112351;28;8803;-69
2023/03/18 08:52:16;;;;;;;;;2.00;2.00;;;;;;;;5112017;27;8804;-68
2023/03/18 08:54:41;;;;;;;;;2.25;1.25;;;;;;;;5111966;27;8827;-69
2023/03/18 08:57:07;;;;;;;;;2.00;2.00;;;;;;;;5112042;28;10068;-69
2023/03/18 08:59:33;;;;;;;;;1.25;1.25;;;;;;;;5112033;27;8811;-69
2023/03/18 09:01:58;;;;;;;;;1.00;1.00;;;;;;;;5112040;28;8784;-70
2023/03/18 09:04:24;;;;;;;;;1.00;1.00;;;;;;;;5112440;28;9630;-69
2023/03/18 09:06:50;;;;;;;;;1.75;1.75;;;;;;;;5111839;27;8933;-69
2023/03/18 09:09:15;;;;;;;;;2.75;2.00;;;;;;;;5112112;27;10513;-68
2023/03/18 09:11:41;;;;;;;;;2.00;2.00;;;;;;;;5111877;27;8801;-69
2023/03/18 09:14:07;;;;;;;;;3.50;2.25;;;;;;;;5111994;27;8804;-69
2023/03/18 09:16:32;;;;;;;;;2.75;1.50;;;;;;;;5111823;27;8792;-69
2023/03/18 09:18:57;;;;;;;;;4.00;1.00;;;;;;;;5111974;27;9635;-70
2023/03/18 09:21:23;;;;;;;;;3.00;2.00;;;;;;;;5110332;28;8802;-69
2023/03/18 09:23:49;;;;;;;;;3.00;1.67;;;;;;;;5111907;27;8858;-69
2023/03/18 09:26:14;;;;;;;;;1.00;1.00;;;;;;;;5110106;28;9630;-69
2023/03/18 09:28:39;;;;;;;;;2.00;1.00;;;;;;;;5111452;27;9503;-69
2023/03/18 09:31:05;;;;;;;;;2.00;1.00;;;;;;;;5111893;28;8772;-69
2023/03/18 09:33:30;;;;;;;;;1.00;1.00;;;;;;;;5110364;27;8820;-69
2023/03/18 09:35:55;;;;;;;;;1.67;1.67;;;;;;;;5111687;28;8769;-70
2023/03/18 09:38:21;;;;;;;;;1.67;0.67;;;;;;;;5111681;27;8785;-69
2023/03/18 09:40:54;;;;;;;;;0.33;0.33;;;;;;;;5111594;27;9368;-69
2023/03/18 09:43:49;;;;;;;;;3.67;1.33;;;;;;;;5111291;27;8785;-69
2023/03/18 09:46:17;;;;;;;;;1.00;1.00;;;;;;;;5093592;28;9541;-69
2023/03/18 09:49:01;;;;;;;;;2.67;2.00;;;;;;;;5111132;28;9511;-68
2023/03/18 09:51:29;;;;;;;;;2.33;0.00;;;;;;;;5111164;28;9313;-69
2023/03/18 09:53:57;;;;;;;;;1.00;1.00;;;;;;;;5111173;28;9339;-70
2023/03/18 09:56:25;;;;;;;;;2.00;0.67;;;;;;;;5104305;27;9258;-70
2023/03/18 09:59:02;;;;;;;;;1.67;1.00;;;;;;;;5090583;28;9317;-67
2023/03/18 10:01:27;;;;;;;;;1.00;1.00;;;;;;;;5088612;27;9443;-68
2023/03/18 10:03:56;;;;;;;;;0.33;0.33;;;;;;;;5110292;27;9261;-68
2023/03/18 10:06:23;;;;;;;;;2.67;1.00;;;;;;;;5096809;28;8800;-68
2023/03/18 10:09:00;;;;;;;;;1.00;1.00;;;;;;;;5090631;28;9267;-68
2023/03/18 10:11:25;;;;;;;;;2.00;1.00;;;;;;;;5104192;27;9184;-68
2023/03/18 10:13:56;;;;;;;;;0.00;0.00;;;;;;;;5099508;28;10082;-68
2023/03/18 10:16:24;;;;;;;;;1.00;1.00;;;;;;;;5094806;28;8815;-68
2023/03/18 10:18:50;;;;;;;;;0.33;0.33;;;;;;;;5105339;27;9203;-70
2023/03/18 10:21:23;;;;;;;;;0.00;0.00;;;;;;;;5089905;28;9248;-70
2023/03/18 10:23:49;;;;;;;;;0.67;0.67;;;;;;;;5099406;28;8808;-71
2023/03/18 10:26:18;;;;;;;;;0.00;0.00;;;;;;;;5109324;28;9268;-70
2023/03/18 10:28:43;;;;;;;;;2.00;0.00;;;;;;;;5093211;27;8811;-71
2023/03/18 10:31:21;;;;;;;;;0.00;0.00;;;;;;;;5106789;28;9196;-71
2023/03/18 10:33:56;;;;;;;;;0.00;0.00;;;;;;;;5098600;28;8816;-70
2023/03/18 10:36:44;;;;;;;;;0.00;0.00;;;;;;;;5096917;27;9360;-71
2023/03/18 10:39:15;;;;;;;;;1.33;0.33;;;;;;;;5085063;28;9177;-72
2023/03/18 10:41:42;;;;;;;;;0.00;0.00;;;;;;;;5105692;27;9093;-71
2023/03/18 10:44:26;;;;;;;;;0.33;0.33;;;;;;;;5098470;27;9423;-70
2023/03/18 10:46:57;;;;;;;;;1.00;1.00;;;;;;;;5109677;28;9410;-70
2023/03/18 10:49:26;;;;;;;;;1.00;1.00;;;;;;;;5098858;28;9240;-69
2023/03/18 10:52:00;;;;;;;;;1.00;1.00;;;;;;;;5103852;27;9397;-70
2023/03/18 10:54:34;;;;;;;;;0.00;0.00;;;;;;;;5107720;28;9302;-70
2023/03/18 10:57:00;;;;;;;;;1.00;1.00;;;;;;;;5096866;27;9322;-70
2023/03/18 10:59:26;;;;;;;;;0.67;0.67;;;;;;;;5107644;27;9983;-70
2023/03/18 11:02:19;;;;;;;;;0.67;0.00;;;;;;;;5102195;28;8834;-71
2023/03/18 11:05:14;;;;;;;;;0.00;0.00;;;;;;;;5092736;28;9251;-70
2023/03/18 11:08:07;;;;;;;;;1.67;1.00;;;;;;;;5088061;28;9414;-69
2023/03/18 11:10:44;;;;;;;;;3.00;0.67;;;;;;;;5104087;28;9440;-71
2023/03/18 11:13:15;;;;;;;;;1.00;0.00;;;;;;;;5096484;28;9457;-71
2023/03/18 11:15:43;;;;;;;;;1.00;0.00;;;;;;;;5105010;27;9360;-71
2023/03/18 11:18:14;;;;;;;;;3.33;1.00;;;;;;;;5104718;28;9320;-70
2023/03/18 11:20:46;;;;;;;;;0.00;0.00;;;;;;;;5096467;27;9385;-71
2023/03/18 11:23:16;;;;;;;;;0.33;0.33;;;;;;;;5096702;28;9323;-70
2023/03/18 11:25:44;;;;;;;;;1.33;1.33;;;;;;;;5104497;27;9561;-70
2023/03/18 11:28:17;;;;;;;;;0.67;0.67;;;;;;;;5098848;27;9471;-71
2023/03/18 11:30:45;;;;;;;;;0.00;0.00;;;;;;;;5095653;27;9326;-71
2023/03/18 11:33:11;;;;;;;;;0.67;0.67;;;;;;;;5096264;28;9342;-71
2023/03/18 11:35:56;;;;;;;;;1.00;1.00;;;;;;;;5097681;27;9426;-71
2023/03/18 11:38:32;;;;;;;;;0.67;0.67;;;;;;;;5100844;28;8768;-71
2023/03/18 11:41:07;;;;;;;;;1.00;1.00;;;;;;;;5102233;27;9426;-71
2023/03/18 11:43:34;;;;;;;;;0.00;0.00;;;;;;;;5104312;27;9366;-72
2023/03/18 11:46:03;;;;;;;;;0.00;0.00;;;;;;;;5101038;28;9626;-71
2023/03/18 11:48:41;;;;;;;;;2.00;1.00;;;;;;;;5097549;27;9481;-71
2023/03/18 11:51:18;;;;;;;;;1.00;0.00;;;;;;;;5108579;28;9584;-71
2023/03/18 11:53:43;;;;;;;;;0.00;0.00;;;;;;;;5098939;28;9969;-71
2023/03/18 11:56:11;;;;;;;;;2.33;0.33;;;;;;;;5099677;28;9322;-71
2023/03/18 11:58:39;;;;;;;;;1.00;1.00;;;;;;;;5108084;28;8862;-70
2023/03/18 12:01:12;;;;;;;;;0.00;0.00;;;;;;;;5095474;28;9272;-69
2023/03/18 12:03:56;;;;;;;;;1.33;0.33;;;;;;;;5105128;27;9314;-71
2023/03/18 12:06:23;;;;;;;;;0.33;0.00;;;;;;;;5106258;28;9400;-70
2023/03/18 12:08:58;;;;;;;;;0.00;0.00;;;;;;;;5095351;27;9347;-70
2023/03/18 12:11:33;;;;;;;;;1.67;0.67;;;;;;;;5096340;27;9408;-70
2023/03/18 12:14:17;;;;;;;;;1.00;0.33;;;;;;;;5091667;28;9345;-70
2023/03/18 12:16:43;;;;;;;;;0.67;0.67;;;;;;;;5108676;28;9540;-71
2023/03/18 12:19:20;;;;;;;;;0.00;0.00;;;;;;;;5097347;27;9419;-71
2023/03/18 12:22:03;;;;;;;;;0.00;0.00;;;;;;;;5091823;28;8767;-71
2023/03/18 12:24:46;;;;;;;;;0.00;0.00;;;;;;;;5091827;27;9446;-70
2023/03/18 12:27:24;;;;;;;;;0.00;0.00;;;;;;;;5095745;28;9304;-70
2023/03/18 12:29:59;;;;;;;;;0.00;0.00;;;;;;;;5102705;27;9490;-72
2023/03/18 12:32:24;;;;;;;;;0.00;0.00;;;;;;;;5105406;28;9430;-72
2023/03/18 12:35:08;;;;;;;;;1.00;0.00;;;;;;;;5092994;28;9547;-71
2023/03/18 12:37:52;;;;;;;;;0.67;0.67;;;;;;;;5105284;28;8814;-71
2023/03/18 12:40:40;;;;;;;;;0.00;0.00;;;;;;;;5105643;28;9254;-71
2023/03/18 12:43:11;;;;;;;;;1.00;0.00;;;;;;;;5104530;27;9360;-71
2023/03/18 12:45:41;;;;;;;;;1.33;0.00;;;;;;;;5099280;28;9334;-71
2023/03/18 12:48:15;;;;;;;;;0.00;0.00;;;;;;;;5100035;27;9581;-71
2023/03/18 12:50:42;;;;;;;;;0.33;0.00;;;;;;;;5106457;28;9321;-71
2023/03/18 12:53:12;;;;;;;;;0.00;0.00;;;;;;;;5098425;27;9422;-71
2023/03/18 12:55:39;;;;;;;;;0.00;0.00;;;;;;;;5112105;27;9253;-71
2023/03/18 12:58:06;;;;;;;;;0.00;0.00;;;;;;;;5095758;27;9448;-71
2023/03/18 13:00:34;;;;;;;;;0.00;0.00;;;;;;;;5091389;27;9377;-71
2023/03/18 13:03:04;;;;;;;;;0.00;0.00;;;;;;;;5108894;28;9253;-71
2023/03/18 13:05:51;;;;;;;;;0.00;0.00;;;;;;;;5091101;28;9317;-71
2023/03/18 13:08:22;;;;;;;;;0.00;0.00;;;;;;;;5107473;28;9492;-71
2023/03/18 13:10:52;;;;;;;;;0.00;0.00;;;;;;;;5096370;28;9333;-71
2023/03/18 13:13:19;;;;;;;;;0.00;0.00;;;;;;;;5101530;27;9334;-70
2023/03/18 13:15:48;;;;;;;;;0.00;0.00;;;;;;;;5104410;28;9301;-70
2023/03/18 13:18:27;;;;;;;;;0.00;0.00;;;;;;;;5094358;27;9475;-70
2023/03/18 13:20:55;;;;;;;;;0.00;0.00;;;;;;;;5105325;27;9553;-71
2023/03/18 13:23:20;;;;;;;;;1.33;0.00;;;;;;;;5100925;28;9578;-70
2023/03/18 13:25:50;;;;;;;;;2.00;0.00;;;;;;;;5098827;27;9410;-71
2023/03/18 13:28:38;;;;;;;;;0.00;0.00;;;;;;;;5105904;28;8811;-71
2023/03/18 13:31:25;;;;;;;;;0.00;0.00;;;;;;;;5086160;28;10237;-71
2023/03/18 13:34:09;;;;;;;;;1.00;0.00;;;;;;;;5102592;27;9341;-71
2023/03/18 13:36:45;;;;;;;;;0.00;0.00;;;;;;;;5094594;28;9452;-71
2023/03/18 13:39:13;;;;;;;;;0.00;0.00;;;;;;;;5102631;27;9431;-71
2023/03/18 13:41:39;;;;;;;;;0.00;0.00;;;;;;;;5103040;27;9421;-71
2023/03/18 13:44:24;;;;;;;;;2.75;0.75;;;;;;;;5095020;27;9402;-71
2023/03/18 13:46:58;;;;;;;;;2.00;1.00;;;;;;;;5093112;27;8807;-71
2023/03/18 13:49:25;;;;;;;;;0.00;0.00;;;;;;;;5101017;28;9526;-71
2023/03/18 13:51:54;;;;;;;;;0.00;0.00;;;;;;;;5112512;27;9583;-71
2023/03/18 13:54:19;;;;;;;;;1.00;0.00;;;;;;;;5111410;27;9375;-70
2023/03/18 13:56:49;;;;;;;;;0.00;0.00;;;;;;;;5094988;28;9583;-71
2023/03/18 13:59:33;;;;;;;;;0.00;0.00;;;;;;;;5101016;27;8777;-71
2023/03/18 14:02:18;;;;;;;;;1.33;0.00;;;;;;;;5105470;28;9310;-70
2023/03/18 14:04:46;;;;;;;;;2.00;1.00;;;;;;;;5084366;28;9464;-71
2023/03/18 14:07:12;;;;;;;;;0.00;0.00;;;;;;;;5101909;27;9506;-71
2023/03/18 14:09:50;;;;;;;;;0.00;0.00;;;;;;;;5102453;28;9387;-71
2023/03/18 14:12:15;;;;;;;;;0.33;0.00;;;;;;;;5093543;27;11551;-70
2023/03/18 14:14:47;;;;;;;;;0.00;0.00;;;;;;;;5106147;27;9519;-71
2023/03/18 14:17:16;;;;;;;;;0.00;0.00;;;;;;;;5098943;28;8795;-70
2023/03/18 14:19:43;;;;;;;;;0.00;0.00;;;;;;;;5098107;27;9399;-70
2023/03/18 14:22:32;;;;;;;;;0.67;0.33;;;;;;;;5110518;28;9261;-70
2023/03/18 14:25:08;;;;;;;;;1.00;1.00;;;;;;;;5100696;28;9490;-70
2023/03/18 14:27:43;;;;;;;;;0.00;0.00;;;;;;;;5102057;27;9392;-70
2023/03/18 14:30:27;;;;;;;;;0.00;0.00;;;;;;;;5093772;28;9320;-70
2023/03/18 14:32:57;;;;;;;;;0.00;0.00;;;;;;;;5093676;28;9484;-70
2023/03/18 14:35:27;;;;;;;;;0.00;0.00;;;;;;;;5093705;28;9417;-70
2023/03/18 14:38:05;;;;;;;;;0.00;0.00;;;;;;;;5093905;28;9448;-70
2023/03/18 14:40:34;;;;;;;;;0.00;0.00;;;;;;;;5093752;28;9399;-71
2023/03/18 14:43:01;;;;;;;;;0.00;0.00;;;;;;;;5090290;28;10177;-70
2023/03/18 14:45:30;;;;;;;;;0.00;0.00;;;;;;;;5114260;27;9496;-70
2023/03/18 14:48:00;;;;;;;;;0.33;0.00;;;;;;;;5113920;27;9459;-70
2023/03/18 14:50:34;;;;;;;;;0.00;0.00;;;;;;;;5114169;27;9536;-70
2023/03/18 14:53:05;;;;;;;;;0.00;0.00;;;;;;;;5114266;28;9534;-70
2023/03/18 14:55:34;;;;;;;;;0.67;0.00;;;;;;;;5114243;28;10345;-70
2023/03/18 14:58:00;;;;;;;;;0.00;0.00;;;;;;;;5114121;27;9480;-71
2023/03/18 15:00:27;;;;;;;;;0.67;0.67;;;;;;;;5114023;27;10281;-71